Time;durP1;ratioP1;P1;durP2;ratioP2;P2;SDS_P1;SDS_P2;PMS_P1;PMS_P2;Temp;Humidity;BMP_temperature;BMP_pressure;BME280_temperature;BME280_humidity;BME280_pressure;Samples;Min_cycle;Max_cycle;Signal;HPM_P1;HPM_P2
2023/09/07 00:02:14;;;;;;;6.15;5.00;;;18.60;99.90;;;;;;5015211;28;20037;-67
2023/09/07 00:04:39;;;;;;;8.10;5.75;;;18.50;99.90;;;;;;5019514;28;20062;-67
2023/09/07 00:07:05;;;;;;;11.55;6.10;;;18.50;99.90;;;;;;5020069;28;20044;-67
2023/09/07 00:09:30;;;;;;;7.10;5.85;;;18.40;99.90;;;;;;5034263;28;20072;-68
2023/09/07 00:11:56;;;;;;;7.38;5.90;;;18.40;99.90;;;;;;5021566;28;20037;-67
2023/09/07 00:14:22;;;;;;;8.80;5.47;;;18.30;99.90;;;;;;5028326;28;20041;-67
2023/09/07 00:16:47;;;;;;;8.40;5.00;;;18.30;99.90;;;;;;5022881;28;20045;-67
2023/09/07 00:19:13;;;;;;;6.18;5.00;;;18.20;99.90;;;;;;5034420;28;20037;-68
2023/09/07 00:21:39;;;;;;;6.05;5.45;;;18.10;99.90;;;;;;5030417;28;20113;-68
2023/09/07 00:24:05;;;;;;;6.97;5.75;;;18.00;99.90;;;;;;5034277;28;20391;-67
2023/09/07 00:26:31;;;;;;;6.22;5.15;;;17.90;99.90;;;;;;5032472;28;20041;-67
2023/09/07 00:28:57;;;;;;;9.15;6.03;;;17.90;99.90;;;;;;5014775;28;20056;-68
2023/09/07 00:31:23;;;;;;;8.15;6.50;;;17.80;99.90;;;;;;5023329;28;20543;-68
2023/09/07 00:33:48;;;;;;;9.52;6.68;;;18.00;99.90;;;;;;5031854;28;20053;-67
2023/09/07 00:36:14;;;;;;;8.68;6.47;;;18.10;99.90;;;;;;5032381;28;20111;-67
2023/09/07 00:38:40;;;;;;;12.70;6.43;;;18.30;99.90;;;;;;5018716;28;20157;-67
2023/09/07 00:41:05;;;;;;;9.40;6.82;;;18.40;99.90;;;;;;5028661;28;20037;-67
2023/09/07 00:43:31;;;;;;;10.48;6.43;;;18.50;99.90;;;;;;5054759;23;20533;-67
2023/09/07 00:45:56;;;;;;;9.55;6.70;;;18.50;99.90;;;;;;4992282;28;20033;-67
2023/09/07 00:48:22;;;;;;;8.80;6.65;;;18.50;99.90;;;;;;5000167;28;20590;-67
2023/09/07 00:50:48;;;;;;;8.07;5.68;;;18.40;99.90;;;;;;5011869;28;20060;-67
2023/09/07 00:53:14;;;;;;;7.78;5.65;;;18.40;99.90;;;;;;5004330;28;20049;-67
2023/09/07 00:55:40;;;;;;;14.95;6.32;;;18.20;99.90;;;;;;4999584;28;20042;-67
2023/09/07 00:58:06;;;;;;;11.20;6.30;;;18.10;99.90;;;;;;5010510;28;20124;-67
2023/09/07 01:00:33;;;;;;;9.88;5.82;;;18.10;99.90;;;;;;5012270;28;20042;-67
2023/09/07 01:02:59;;;;;;;7.40;5.90;;;18.00;99.90;;;;;;5003730;28;20033;-67
2023/09/07 01:06:06;;;;;;;9.85;6.65;;;18.00;99.90;;;;;;4999573;28;20052;-68
2023/09/07 01:08:39;;;;;;;8.88;6.38;;;18.10;99.90;;;;;;5017053;28;20054;-67
2023/09/07 01:11:14;;;;;;;9.88;6.53;;;18.10;99.90;;;;;;5003406;28;20443;-67
2023/09/07 01:13:41;;;;;;;8.43;6.72;;;18.20;99.90;;;;;;5001773;28;20077;-68
2023/09/07 01:16:07;;;;;;;9.82;6.80;;;18.20;99.90;;;;;;5010663;28;20121;-67
2023/09/07 01:18:33;;;;;;;10.90;7.10;;;18.20;99.90;;;;;;4997403;28;20492;-67
2023/09/07 01:21:03;;;;;;;9.95;7.32;;;18.20;99.90;;;;;;5001245;28;20038;-68
2023/09/07 01:23:28;;;;;;;11.40;7.40;;;18.30;99.90;;;;;;5002518;28;20069;-67
2023/09/07 01:25:55;;;;;;;8.48;7.40;;;18.30;99.90;;;;;;5012556;28;20520;-68
2023/09/07 01:28:21;;;;;;;10.23;7.13;;;18.30;99.90;;;;;;4998687;28;20042;-67
2023/09/07 01:30:47;;;;;;;10.13;7.47;;;18.30;99.90;;;;;;5009615;28;20373;-67
2023/09/07 01:33:12;;;;;;;9.70;7.45;;;18.30;99.90;;;;;;5013653;28;20040;-68
2023/09/07 01:35:39;;;;;;;13.25;7.28;;;18.30;99.90;;;;;;4985755;28;20035;-67
2023/09/07 01:38:04;;;;;;;12.65;7.43;;;18.30;99.90;;;;;;4989916;28;20542;-68
2023/09/07 01:40:30;;;;;;;10.77;7.15;;;18.40;99.90;;;;;;5006690;28;20045;-68
2023/09/07 01:42:55;;;;;;;10.65;7.30;;;18.40;99.90;;;;;;5015377;28;20439;-67
2023/09/07 01:45:22;;;;;;;10.55;7.18;;;18.40;99.90;;;;;;5005179;28;20049;-67
2023/09/07 01:47:47;;;;;;;10.52;7.13;;;18.40;99.90;;;;;;5012804;28;20041;-68
2023/09/07 01:50:14;;;;;;;13.77;7.32;;;18.50;99.90;;;;;;5005596;28;20041;-67
2023/09/07 01:52:39;;;;;;;9.95;7.15;;;18.50;99.90;;;;;;5003273;28;20042;-67
2023/09/07 01:55:05;;;;;;;8.88;6.72;;;18.40;99.90;;;;;;5010873;28;20527;-67
2023/09/07 01:57:31;;;;;;;8.85;6.30;;;18.40;99.90;;;;;;5011032;28;20378;-68
2023/09/07 01:59:58;;;;;;;7.80;6.65;;;18.30;99.90;;;;;;5008887;28;20143;-68
2023/09/07 02:02:23;;;;;;;11.43;7.30;;;18.20;99.90;;;;;;5004203;28;20113;-67
2023/09/07 02:04:49;;;;;;;10.25;6.70;;;18.20;99.90;;;;;;5010346;28;20111;-68
2023/09/07 02:07:14;;;;;;;10.43;6.88;;;18.20;99.90;;;;;;5015439;28;20113;-68
2023/09/07 02:09:42;;;;;;;9.93;6.95;;;18.10;99.90;;;;;;4985957;28;20049;-68
2023/09/07 02:12:07;;;;;;;9.07;6.80;;;18.20;99.90;;;;;;5010308;28;20038;-67
2023/09/07 02:14:33;;;;;;;7.97;6.68;;;18.20;99.90;;;;;;4994202;28;20049;-67
2023/09/07 02:16:58;;;;;;;13.32;7.53;;;18.10;99.90;;;;;;5014959;28;20117;-68
2023/09/07 02:19:25;;;;;;;11.48;7.30;;;18.10;99.90;;;;;;5008105;28;20037;-67
2023/09/07 02:21:52;;;;;;;9.32;7.68;;;18.10;99.90;;;;;;5009752;28;20092;-67
2023/09/07 02:24:18;;;;;;;8.93;7.50;;;18.20;99.90;;;;;;5007939;28;20116;-67
2023/09/07 02:26:45;;;;;;;10.10;6.82;;;18.20;99.90;;;;;;4996157;28;20125;-67
2023/09/07 02:29:13;;;;;;;10.63;7.93;;;18.20;99.90;;;;;;5007343;28;20492;-67
2023/09/07 02:31:40;;;;;;;11.90;7.85;;;18.10;99.90;;;;;;5014100;28;20074;-68
2023/09/07 02:34:06;;;;;;;11.20;7.60;;;18.00;99.90;;;;;;5013053;28;20399;-68
2023/09/07 02:36:31;;;;;;;12.57;7.15;;;18.10;99.90;;;;;;5003822;28;20480;-68
2023/09/07 02:38:57;;;;;;;7.70;6.85;;;18.00;99.90;;;;;;5013853;28;20030;-67
2023/09/07 02:41:22;;;;;;;9.88;7.22;;;17.80;99.90;;;;;;5014591;28;20046;-66
2023/09/07 02:43:48;;;;;;;8.98;6.65;;;17.70;99.90;;;;;;5006647;28;20125;-68
2023/09/07 02:46:13;;;;;;;9.75;7.30;;;17.60;99.90;;;;;;5016584;28;20045;-67
2023/09/07 02:48:39;;;;;;;9.88;7.00;;;17.50;99.90;;;;;;5014518;28;20038;-67
2023/09/07 02:51:05;;;;;;;9.73;7.18;;;17.40;99.90;;;;;;5008132;28;20033;-67
2023/09/07 02:53:30;;;;;;;10.10;7.55;;;17.40;99.90;;;;;;5013871;28;20038;-67
2023/09/07 02:55:56;;;;;;;9.95;7.68;;;17.30;99.90;;;;;;5014343;28;20117;-67
2023/09/07 02:58:23;;;;;;;11.27;8.00;;;17.20;99.90;;;;;;5009697;28;20049;-67
2023/09/07 03:00:48;;;;;;;9.77;7.57;;;17.20;99.90;;;;;;5013296;28;20061;-67
2023/09/07 03:03:14;;;;;;;9.52;7.30;;;17.10;99.90;;;;;;5014561;28;20463;-68
2023/09/07 03:05:41;;;;;;;10.63;7.68;;;17.00;99.90;;;;;;5018911;28;20041;-66
2023/09/07 03:08:07;;;;;;;8.90;7.20;;;16.80;99.90;;;;;;5010753;28;20045;-67
2023/09/07 03:10:32;;;;;;;10.38;7.32;;;16.70;99.90;;;;;;5004313;28;20034;-67
2023/09/07 03:12:58;;;;;;;8.30;6.90;;;16.60;99.90;;;;;;5013402;28;20073;-67
2023/09/07 03:15:23;;;;;;;10.27;7.40;;;16.50;99.90;;;;;;5004225;28;20050;-67
2023/09/07 03:17:49;;;;;;;9.68;7.78;;;16.40;99.90;;;;;;4981744;28;20073;-67
2023/09/07 03:20:16;;;;;;;10.30;7.60;;;16.40;99.90;;;;;;5004117;28;20041;-67
2023/09/07 03:22:42;;;;;;;10.55;8.10;;;16.30;99.90;;;;;;5012821;28;20045;-67
2023/09/07 03:25:09;;;;;;;11.77;7.80;;;16.30;99.90;;;;;;4997917;28;20052;-67
2023/09/07 03:27:36;;;;;;;10.73;8.07;;;16.30;99.90;;;;;;4979517;28;20049;-67
2023/09/07 03:30:03;;;;;;;9.80;8.60;;;16.30;99.90;;;;;;5015437;28;20369;-68
2023/09/07 03:32:32;;;;;;;12.50;8.85;;;16.30;99.90;;;;;;4995482;28;20091;-68
2023/09/07 03:34:58;;;;;;;10.48;8.82;;;16.40;99.90;;;;;;5010458;28;20500;-67
2023/09/07 03:37:24;;;;;;;12.45;9.15;;;16.50;99.90;;;;;;5013151;28;20045;-67
2023/09/07 03:39:50;;;;;;;14.77;9.32;;;16.60;99.90;;;;;;5011443;28;20038;-67
2023/09/07 03:42:16;;;;;;;11.32;8.73;;;16.70;99.90;;;;;;5012556;28;20034;-67
2023/09/07 03:44:41;;;;;;;12.52;9.02;;;16.80;99.90;;;;;;5016330;28;20061;-67
2023/09/07 03:47:08;;;;;;;13.00;9.50;;;16.80;99.90;;;;;;4986491;28;20037;-68
2023/09/07 03:49:34;;;;;;;14.55;9.00;;;16.90;99.90;;;;;;4989888;28;20046;-67
2023/09/07 03:51:59;;;;;;;14.13;9.15;;;16.90;99.90;;;;;;4994993;28;20088;-67
2023/09/07 03:54:25;;;;;;;11.68;8.95;;;17.00;99.90;;;;;;4999550;28;20555;-67
2023/09/07 03:56:51;;;;;;;12.93;9.10;;;17.00;99.90;;;;;;5011452;28;20046;-67
2023/09/07 03:59:16;;;;;;;12.88;9.60;;;17.00;99.90;;;;;;4995209;28;20046;-67
2023/09/07 04:01:42;;;;;;;14.23;9.57;;;17.00;99.90;;;;;;4992807;28;20096;-68
2023/09/07 04:04:08;;;;;;;13.85;9.25;;;17.10;99.90;;;;;;4996150;28;20052;-67
2023/09/07 04:06:33;;;;;;;13.30;9.70;;;17.10;99.90;;;;;;4986700;28;20041;-67
2023/09/07 04:08:59;;;;;;;10.93;9.55;;;17.10;99.90;;;;;;5012292;28;20038;-68
2023/09/07 04:11:24;;;;;;;12.98;9.50;;;17.10;99.90;;;;;;5015041;28;20112;-67
2023/09/07 04:13:50;;;;;;;12.82;10.05;;;17.10;99.90;;;;;;5006457;28;20038;-67
2023/09/07 04:16:15;;;;;;;15.32;10.32;;;17.10;99.90;;;;;;5012082;28;20045;-67
2023/09/07 04:18:42;;;;;;;20.05;10.20;;;17.00;99.90;;;;;;5011890;28;20042;-67
2023/09/07 04:21:08;;;;;;;12.75;10.23;;;17.00;99.90;;;;;;5010080;28;20038;-67
2023/09/07 04:23:35;;;;;;;15.25;10.60;;;17.00;99.90;;;;;;5007104;28;20489;-67
2023/09/07 04:26:07;;;;;;;17.00;10.02;;;17.00;99.90;;;;;;5002868;28;20041;-67
2023/09/07 04:28:33;;;;;;;15.13;10.55;;;17.00;99.90;;;;;;5011252;28;20389;-67
2023/09/07 04:30:59;;;;;;;13.98;10.00;;;17.00;99.90;;;;;;5001393;28;20542;-67
2023/09/07 04:33:25;;;;;;;16.98;10.38;;;17.00;99.90;;;;;;5007461;28;20157;-67
2023/09/07 04:35:50;;;;;;;16.55;9.93;;;16.90;99.90;;;;;;5005512;28;20096;-67
2023/09/07 04:38:16;;;;;;;19.30;10.38;;;16.80;99.90;;;;;;4988618;28;20096;-67
2023/09/07 04:40:41;;;;;;;13.65;10.38;;;16.80;99.90;;;;;;4990379;28;20042;-67
2023/09/07 04:43:07;;;;;;;12.48;10.00;;;16.80;99.90;;;;;;5012004;28;20120;-67
2023/09/07 04:45:32;;;;;;;15.65;10.18;;;16.70;99.90;;;;;;5012474;28;20116;-67
2023/09/07 04:47:58;;;;;;;16.20;10.57;;;16.70;99.90;;;;;;5005417;28;20045;-67
2023/09/07 04:50:24;;;;;;;15.18;10.57;;;16.70;99.90;;;;;;5011281;28;20034;-67
2023/09/07 04:52:49;;;;;;;17.85;10.85;;;16.60;99.90;;;;;;5011562;28;20566;-67
2023/09/07 04:55:15;;;;;;;15.98;10.82;;;16.60;99.90;;;;;;4992415;28;20034;-67
2023/09/07 04:57:40;;;;;;;11.70;9.57;;;16.50;99.90;;;;;;4984806;28;20515;-67
2023/09/07 05:00:08;;;;;;;14.82;9.88;;;16.40;99.90;;;;;;5013698;28;20578;-68
2023/09/07 05:02:38;;;;;;;12.20;8.77;;;16.30;99.90;;;;;;5011239;28;20042;-68
2023/09/07 05:05:05;;;;;;;10.57;8.45;;;16.10;99.90;;;;;;5000850;28;20138;-67
2023/09/07 05:07:30;;;;;;;13.48;9.48;;;15.90;99.90;;;;;;5001834;28;20045;-67
2023/09/07 05:09:56;;;;;;;12.15;9.40;;;15.90;99.90;;;;;;5011875;28;20049;-67
2023/09/07 05:12:21;;;;;;;17.08;9.73;;;15.70;99.90;;;;;;5000212;28;20056;-68
2023/09/07 05:14:47;;;;;;;12.85;10.32;;;15.70;99.90;;;;;;5007501;28;20048;-68
2023/09/07 05:17:13;;;;;;;17.13;10.05;;;15.70;99.90;;;;;;5003890;28;20042;-67
2023/09/07 05:19:38;;;;;;;15.93;11.45;;;15.80;99.90;;;;;;5011607;28;20034;-67
2023/09/07 05:22:04;;;;;;;18.23;11.20;;;15.90;99.90;;;;;;5002360;28;20034;-67
2023/09/07 05:24:29;;;;;;;14.15;11.10;;;16.00;99.90;;;;;;5010346;28;20038;-67
2023/09/07 05:26:55;;;;;;;14.90;11.90;;;16.10;99.90;;;;;;4993247;28;20104;-66
2023/09/07 05:29:21;;;;;;;15.50;11.82;;;16.10;99.90;;;;;;5003235;28;20042;-68
2023/09/07 05:31:47;;;;;;;19.92;11.60;;;16.20;99.90;;;;;;4997112;28;20049;-67
2023/09/07 05:34:12;;;;;;;21.83;11.27;;;16.40;99.90;;;;;;5011446;28;20037;-68
2023/09/07 05:36:38;;;;;;;16.80;11.13;;;16.50;99.90;;;;;;4998346;28;20054;-67
2023/09/07 05:39:03;;;;;;;16.52;11.23;;;16.60;99.90;;;;;;5010565;28;20104;-68
2023/09/07 05:41:29;;;;;;;14.68;10.95;;;16.70;99.90;;;;;;5002111;28;20044;-67
2023/09/07 05:43:55;;;;;;;15.13;11.27;;;16.70;99.90;;;;;;5010155;28;20408;-67
2023/09/07 05:46:21;;;;;;;17.40;12.20;;;16.80;99.90;;;;;;4988643;28;20074;-67
2023/09/07 05:48:46;;;;;;;18.25;11.38;;;16.90;99.90;;;;;;5001648;28;20041;-67
2023/09/07 05:51:12;;;;;;;15.77;11.43;;;16.90;99.90;;;;;;5013740;28;20436;-68
2023/09/07 05:53:39;;;;;;;19.55;12.13;;;16.90;99.90;;;;;;5009697;28;20040;-68
2023/09/07 05:56:04;;;;;;;14.23;11.25;;;17.00;99.90;;;;;;5004128;28;20572;-67
2023/09/07 05:58:30;;;;;;;15.65;11.73;;;17.00;99.90;;;;;;5012093;28;20116;-67
2023/09/07 06:00:55;;;;;;;14.27;11.15;;;17.10;99.90;;;;;;5015297;28;20037;-66
2023/09/07 06:03:21;;;;;;;17.15;11.85;;;17.10;99.90;;;;;;5006830;28;20037;-68
2023/09/07 06:05:47;;;;;;;15.50;11.63;;;17.20;99.90;;;;;;5014330;28;20125;-67
2023/09/07 06:08:12;;;;;;;16.38;11.82;;;17.20;99.90;;;;;;5015281;28;20041;-67
2023/09/07 06:10:38;;;;;;;19.73;11.57;;;17.30;99.90;;;;;;5012229;28;20045;-67
2023/09/07 06:13:04;;;;;;;16.10;11.88;;;17.30;99.90;;;;;;5003990;28;20034;-67
2023/09/07 06:15:30;;;;;;;15.95;11.88;;;17.40;99.90;;;;;;5014745;28;20572;-67
2023/09/07 06:17:55;;;;;;;15.15;11.88;;;17.50;99.90;;;;;;5014170;28;20042;-67
2023/09/07 06:20:21;;;;;;;16.80;12.27;;;17.50;99.90;;;;;;5006972;28;20026;-67
2023/09/07 06:22:47;;;;;;;14.60;11.95;;;17.50;99.90;;;;;;5012918;28;20068;-67
2023/09/07 06:25:12;;;;;;;23.17;12.60;;;17.60;99.90;;;;;;5015006;28;20109;-67
2023/09/07 06:27:38;;;;;;;15.90;12.25;;;17.60;99.90;;;;;;5000534;28;20096;-68
2023/09/07 06:30:07;;;;;;;18.10;11.65;;;17.70;99.90;;;;;;4997975;28;20524;-67
2023/09/07 06:32:33;;;;;;;16.75;11.85;;;17.80;99.90;;;;;;4984416;28;20037;-67
2023/09/07 06:34:58;;;;;;;19.65;13.00;;;17.80;99.90;;;;;;5006906;28;20037;-68
2023/09/07 06:37:24;;;;;;;19.05;13.18;;;17.90;99.90;;;;;;4995575;28;20579;-67
2023/09/07 06:39:50;;;;;;;17.58;12.23;;;17.90;99.90;;;;;;5016628;28;20033;-68
2023/09/07 06:42:16;;;;;;;21.27;12.60;;;18.00;99.90;;;;;;4989922;28;20093;-67
2023/09/07 06:44:42;;;;;;;19.98;13.15;;;18.00;99.90;;;;;;4993387;28;20483;-68
2023/09/07 06:47:08;;;;;;;15.93;12.18;;;18.10;99.90;;;;;;5005953;28;20037;-68
2023/09/07 06:49:34;;;;;;;16.50;12.43;;;18.20;99.90;;;;;;5013938;28;20064;-68
2023/09/07 06:52:00;;;;;;;18.20;12.30;;;18.30;99.90;;;;;;5000478;28;20504;-67
2023/09/07 06:54:28;;;;;;;16.98;12.27;;;18.30;99.90;;;;;;5004977;28;20084;-68
2023/09/07 06:56:53;;;;;;;15.65;12.45;;;18.40;99.90;;;;;;5008578;28;20049;-67
2023/09/07 06:59:19;;;;;;;17.02;12.13;;;18.50;99.90;;;;;;5012350;28;20038;-68
2023/09/07 07:01:44;;;;;;;15.57;12.20;;;18.50;99.90;;;;;;4998765;28;20043;-67
2023/09/07 07:04:10;;;;;;;18.50;13.15;;;18.60;99.90;;;;;;5010251;28;20069;-68
2023/09/07 07:06:36;;;;;;;16.38;12.57;;;18.70;99.90;;;;;;5012516;28;20041;-68
2023/09/07 07:09:01;;;;;;;21.35;13.00;;;18.70;99.90;;;;;;5005734;28;20052;-68
2023/09/07 07:11:27;;;;;;;16.83;12.60;;;18.80;99.90;;;;;;5003051;28;20033;-68
2023/09/07 07:13:52;;;;;;;15.98;12.43;;;18.90;99.90;;;;;;5013994;28;20103;-67
2023/09/07 07:16:18;;;;;;;15.00;11.77;;;18.90;99.90;;;;;;5005405;28;20045;-68
2023/09/07 07:18:43;;;;;;;16.17;12.15;;;19.00;99.90;;;;;;5002392;28;20027;-67
2023/09/07 07:21:09;;;;;;;17.48;12.65;;;19.20;99.90;;;;;;5013760;28;20555;-68
2023/09/07 07:23:36;;;;;;;21.15;12.25;;;19.20;99.90;;;;;;5014269;28;20065;-68
2023/09/07 07:26:02;;;;;;;14.65;11.63;;;19.30;99.90;;;;;;5004019;28;20037;-68
2023/09/07 07:28:27;;;;;;;16.00;12.00;;;19.40;99.90;;;;;;4992591;28;20041;-68
2023/09/07 07:30:53;;;;;;;15.93;11.95;;;19.50;99.90;;;;;;5004173;28;20732;-68
2023/09/07 07:33:19;;;;;;;16.52;12.20;;;19.60;99.90;;;;;;5005076;28;20045;-68
2023/09/07 07:35:45;;;;;;;16.17;12.15;;;19.70;99.90;;;;;;5008465;28;20164;-67
2023/09/07 07:38:13;;;;;;;16.73;11.90;;;19.80;99.90;;;;;;5013140;28;20133;-68
2023/09/07 07:40:39;;;;;;;14.63;11.82;;;19.90;99.90;;;;;;5013494;28;20061;-68
2023/09/07 07:43:06;;;;;;;14.20;11.40;;;20.00;99.90;;;;;;4999078;28;20042;-68
2023/09/07 07:45:36;;;;;;;15.55;11.60;;;20.10;99.90;;;;;;5010740;28;20119;-68
2023/09/07 07:48:02;;;;;;;13.20;10.70;;;20.10;99.90;;;;;;5012778;28;20041;-68
2023/09/07 07:50:28;;;;;;;17.42;11.57;;;20.20;99.90;;;;;;5010167;28;20089;-68
2023/09/07 07:52:53;;;;;;;16.40;11.50;;;20.40;99.90;;;;;;5009901;28;20042;-68
2023/09/07 07:55:19;;;;;;;17.42;11.73;;;20.40;99.90;;;;;;5012892;28;20519;-68
2023/09/07 07:57:44;;;;;;;12.88;10.98;;;20.50;99.90;;;;;;5012191;28;20042;-68
2023/09/07 08:00:10;;;;;;;12.90;10.90;;;20.60;99.90;;;;;;4987471;28;20121;-68
2023/09/07 08:02:37;;;;;;;13.48;10.60;;;20.70;99.90;;;;;;5002532;28;20048;-68
2023/09/07 08:05:04;;;;;;;11.95;10.52;;;20.70;99.90;;;;;;5011047;28;20515;-68
2023/09/07 08:07:30;;;;;;;16.73;10.52;;;20.80;99.90;;;;;;4994961;28;20096;-68
2023/09/07 08:09:55;;;;;;;17.88;10.43;;;20.90;99.90;;;;;;4990969;28;20046;-68
2023/09/07 08:12:21;;;;;;;13.27;10.13;;;21.00;99.90;;;;;;5000246;28;20077;-68
2023/09/07 08:14:46;;;;;;;16.25;10.10;;;21.10;99.90;;;;;;4990077;28;20084;-68
2023/09/07 08:17:12;;;;;;;13.45;10.00;;;21.10;99.90;;;;;;5005559;28;20038;-68
2023/09/07 08:19:38;;;;;;;12.15;9.98;;;21.20;99.90;;;;;;5008016;28;20488;-68
2023/09/07 08:22:05;;;;;;;13.65;9.80;;;21.30;99.90;;;;;;5012680;28;20037;-68
2023/09/07 08:24:31;;;;;;;12.23;10.40;;;21.40;99.90;;;;;;5012715;28;20108;-68
2023/09/07 08:26:57;;;;;;;16.80;10.60;;;21.50;99.90;;;;;;5008484;28;20492;-68
2023/09/07 08:29:26;;;;;;;15.60;9.80;;;21.60;99.90;;;;;;4996253;28;20042;-68
2023/09/07 08:31:57;;;;;;;12.68;10.30;;;21.70;99.90;;;;;;5004450;28;20063;-68
2023/09/07 08:34:23;;;;;;;13.07;10.20;;;21.80;99.90;;;;;;5004711;28;20042;-68
2023/09/07 08:36:49;;;;;;;14.15;9.70;;;21.90;99.90;;;;;;4995066;28;20507;-68
2023/09/07 08:39:16;;;;;;;11.98;9.35;;;21.90;99.90;;;;;;5004284;28;20129;-68
2023/09/07 08:41:44;;;;;;;10.82;9.60;;;22.00;99.90;;;;;;5010130;28;20084;-69
2023/09/07 08:44:10;;;;;;;11.20;9.15;;;22.10;99.90;;;;;;5008850;28;20507;-69
2023/09/07 08:46:37;;;;;;;12.68;8.93;;;22.20;99.90;;;;;;4999378;28;20481;-68
2023/09/07 08:49:04;;;;;;;12.27;9.40;;;22.30;99.90;;;;;;5004651;28;20080;-69
2023/09/07 08:51:31;;;;;;;12.77;9.60;;;22.40;99.90;;;;;;4987522;28;20493;-68
2023/09/07 08:54:00;;;;;;;11.35;9.32;;;22.30;99.90;;;;;;5008768;28;20042;-68
2023/09/07 08:56:26;;;;;;;13.52;9.73;;;22.40;99.90;;;;;;5004636;28;20045;-69
2023/09/07 08:58:51;;;;;;;12.05;9.35;;;22.50;99.90;;;;;;5004631;28;20048;-69
2023/09/07 09:01:17;;;;;;;13.30;9.40;;;22.60;99.90;;;;;;4983533;28;20057;-68
2023/09/07 09:03:43;;;;;;;11.75;9.00;;;22.60;99.90;;;;;;4998205;28;20037;-69
2023/09/07 09:06:10;;;;;;;12.15;9.35;;;22.70;99.90;;;;;;4990953;28;20048;-68
2023/09/07 09:08:48;;;;;;;12.05;9.32;;;22.80;99.90;;;;;;4986281;28;20041;-68
2023/09/07 09:11:14;;;;;;;11.85;9.45;;;22.80;99.90;;;;;;4991675;28;20100;-68
2023/09/07 09:13:41;;;;;;;16.70;9.18;;;22.90;99.90;;;;;;4988686;28;20437;-68
2023/09/07 09:16:06;;;;;;;11.82;9.32;;;22.90;99.90;;;;;;5003418;28;20057;-68
2023/09/07 09:18:32;;;;;;;13.80;9.43;;;22.90;99.90;;;;;;5010333;28;20038;-68
2023/09/07 09:21:01;;;;;;;11.82;9.23;;;23.10;99.90;;;;;;4998828;28;20041;-68
2023/09/07 09:23:37;;;;;;;13.55;9.32;;;23.10;99.90;;;;;;5003267;28;20037;-68
2023/09/07 09:26:04;;;;;;;14.05;9.40;;;23.20;99.90;;;;;;4993381;28;20547;-69
2023/09/07 09:28:34;;;;;;;15.38;9.60;;;23.20;99.90;;;;;;5011496;28;20042;-69
2023/09/07 09:31:01;;;;;;;10.73;8.77;;;23.30;99.90;;;;;;4994313;28;20049;-69
2023/09/07 09:33:28;;;;;;;17.23;9.20;;;23.40;99.90;;;;;;4994596;28;20484;-68
2023/09/07 09:35:54;;;;;;;11.20;8.90;;;23.50;99.90;;;;;;5004856;28;20082;-68
2023/09/07 09:38:20;;;;;;;16.52;9.13;;;23.50;99.90;;;;;;4984788;28;20046;-68
2023/09/07 09:40:45;;;;;;;14.48;9.50;;;23.60;99.90;;;;;;4999036;28;20038;-68
2023/09/07 09:43:12;;;;;;;13.27;9.60;;;23.70;99.90;;;;;;5011355;28;20113;-69
2023/09/07 09:45:38;;;;;;;15.35;9.60;;;23.70;99.90;;;;;;5010343;28;20644;-68
2023/09/07 09:48:05;;;;;;;10.07;8.65;;;23.80;99.90;;;;;;5005190;28;20084;-69
2023/09/07 09:50:33;;;;;;;13.70;8.48;;;23.90;99.90;;;;;;5008900;28;20405;-69
2023/09/07 09:53:01;;;;;;;13.38;8.75;;;23.90;99.90;;;;;;5001612;28;20050;-69
2023/09/07 09:55:28;;;;;;;13.68;8.38;;;24.00;99.90;;;;;;5002862;28;20084;-68
2023/09/07 09:57:57;;;;;;;9.73;8.10;;;24.10;99.90;;;;;;4995533;28;20451;-69
2023/09/07 10:00:26;;;;;;;12.65;9.13;;;24.20;99.90;;;;;;5011217;28;20438;-68
2023/09/07 10:03:12;;;;;;;9.93;8.40;;;24.20;99.90;;;;;;5011218;28;20459;-69
2023/09/07 10:05:38;;;;;;;12.57;8.85;;;24.30;99.90;;;;;;4997358;28;20073;-69
2023/09/07 10:10:41;;;;;;;12.82;8.80;;;24.40;99.90;;;;;;5579477;23;20048;-68
2023/09/07 10:13:07;;;;;;;13.20;8.93;;;24.50;99.90;;;;;;5019462;28;20044;-69
2023/09/07 10:15:35;;;;;;;13.18;8.50;;;24.50;99.90;;;;;;5035165;28;20049;-68
2023/09/07 10:18:18;;;;;;;11.43;8.90;;;24.70;99.90;;;;;;5031542;28;20041;-69
2023/09/07 10:20:48;;;;;;;10.30;8.45;;;24.80;99.90;;;;;;5030975;28;20033;-69
2023/09/07 10:23:14;;;;;;;11.27;8.27;;;24.80;99.90;;;;;;5024324;28;20045;-69
2023/09/07 10:25:40;;;;;;;12.50;9.05;;;24.90;99.90;;;;;;5029376;28;20450;-68
2023/09/07 10:28:05;;;;;;;14.90;8.77;;;25.00;99.90;;;;;;5024206;28;20068;-68
2023/09/07 10:30:32;;;;;;;9.63;8.57;;;25.00;99.90;;;;;;5026253;28;20079;-68
2023/09/07 10:32:58;;;;;;;13.40;8.25;;;25.10;99.90;;;;;;5027188;28;20038;-68
2023/09/07 10:35:25;;;;;;;11.52;7.80;;;25.20;99.90;;;;;;5016077;28;20046;-68
2023/09/07 10:37:51;;;;;;;9.88;7.72;;;25.30;99.90;;;;;;5030118;28;20103;-68
2023/09/07 10:40:23;;;;;;;8.73;7.82;;;25.30;99.90;;;;;;5020499;28;20041;-68
2023/09/07 10:42:49;;;;;;;13.25;7.68;;;25.40;99.90;;;;;;5027251;28;20033;-68
2023/09/07 10:45:16;;;;;;;11.40;8.15;;;25.50;99.90;;;;;;5019886;28;20044;-68
2023/09/07 10:47:43;;;;;;;8.75;7.30;;;25.60;99.90;;;;;;5032120;28;20045;-68
2023/09/07 10:50:13;;;;;;;8.23;6.75;;;25.70;99.90;;;;;;5033643;28;20076;-68
2023/09/07 10:52:41;;;;;;;15.75;7.60;;;25.80;99.90;;;;;;5029465;28;20069;-68
2023/09/07 10:55:08;;;;;;;8.20;7.00;;;25.90;99.90;;;;;;5015558;28;20033;-68
2023/09/07 10:57:41;;;;;;;8.00;7.20;;;26.00;99.90;;;;;;5033768;28;20045;-68
2023/09/07 11:00:10;;;;;;;10.45;7.22;;;26.00;99.90;;;;;;5017525;28;20045;-68
2023/09/07 11:02:37;;;;;;;13.32;7.57;;;26.20;99.90;;;;;;5022740;28;20048;-68
2023/09/07 11:05:03;;;;;;;9.35;7.05;;;26.30;99.90;;;;;;5026059;28;20065;-68
2023/09/07 11:07:29;;;;;;;9.02;7.55;;;26.40;99.90;;;;;;5043045;28;20041;-69
2023/09/07 11:09:54;;;;;;;10.57;7.07;;;26.40;99.90;;;;;;5033749;28;20100;-68
2023/09/07 11:12:21;;;;;;;8.43;6.57;;;26.50;99.90;;;;;;5029724;28;20033;-68
2023/09/07 11:14:53;;;;;;;8.20;6.60;;;26.60;99.40;;;;;;5033357;28;20175;-68
2023/09/07 11:17:25;;;;;;;10.07;6.63;;;26.60;99.30;;;;;;5022730;28;20033;-68
2023/09/07 11:19:54;;;;;;;10.23;6.85;;;26.70;99.90;;;;;;5017874;28;20040;-68
2023/09/07 11:22:20;;;;;;;8.80;7.35;;;26.80;99.60;;;;;;5033340;28;20044;-68
2023/09/07 11:24:46;;;;;;;10.57;7.00;;;26.90;99.90;;;;;;5034155;28;20539;-69
2023/09/07 11:27:12;;;;;;;11.07;6.90;;;27.00;99.90;;;;;;5012570;28;20081;-69
2023/09/07 11:29:39;;;;;;;7.93;6.85;;;27.00;99.90;;;;;;5032732;28;20507;-69
2023/09/07 11:32:12;;;;;;;16.27;6.88;;;27.10;99.90;;;;;;5016313;28;20088;-67
2023/09/07 11:34:51;;;;;;;11.48;7.20;;;27.20;99.30;;;;;;5009469;28;20030;-69
2023/09/07 11:37:24;;;;;;;9.65;6.85;;;27.30;99.30;;;;;;5039226;28;20060;-69
2023/09/07 11:39:49;;;;;;;14.52;6.85;;;27.30;99.10;;;;;;5037673;28;20049;-69
2023/09/07 11:42:15;;;;;;;11.50;7.30;;;27.40;99.50;;;;;;5034009;28;20068;-68
2023/09/07 11:44:40;;;;;;;8.93;6.68;;;27.50;99.30;;;;;;5013224;28;20477;-68
2023/09/07 11:47:06;;;;;;;11.15;6.90;;;27.50;99.30;;;;;;5022666;28;20045;-69
2023/09/07 11:49:32;;;;;;;9.25;6.78;;;27.60;98.90;;;;;;5026366;28;20041;-69
2023/09/07 11:51:58;;;;;;;11.23;7.25;;;27.60;98.70;;;;;;5009967;28;20039;-69
2023/09/07 11:54:24;;;;;;;12.77;7.20;;;27.70;99.30;;;;;;5012189;28;20116;-68
2023/09/07 11:56:50;;;;;;;11.57;6.47;;;27.70;99.50;;;;;;5032995;28;20113;-68
2023/09/07 11:59:17;;;;;;;11.43;6.43;;;27.70;98.70;;;;;;5029148;28;20029;-69
2023/09/07 12:01:43;;;;;;;7.05;6.05;;;27.80;98.70;;;;;;5025517;28;20037;-69
2023/09/07 12:04:09;;;;;;;7.90;6.60;;;27.80;98.40;;;;;;5032695;28;20048;-69
2023/09/07 12:06:35;;;;;;;11.25;6.85;;;27.90;98.60;;;;;;5025410;28;20030;-69
2023/09/07 12:09:06;;;;;;;13.93;6.93;;;28.00;98.50;;;;;;5014133;28;20387;-69
2023/09/07 12:11:32;;;;;;;10.07;7.20;;;28.00;98.30;;;;;;5014493;28;20046;-69
2023/09/07 12:13:59;;;;;;;9.30;6.35;;;28.20;98.80;;;;;;5030601;28;20038;-69
2023/09/07 12:16:28;;;;;;;9.40;5.80;;;28.20;98.40;;;;;;5015520;28;20077;-69
2023/09/07 12:18:54;;;;;;;7.43;6.18;;;28.10;96.30;;;;;;5030995;28;20392;-69
2023/09/07 12:21:20;;;;;;;11.93;6.65;;;28.20;97.70;;;;;;5014691;28;20069;-69
2023/09/07 12:23:46;;;;;;;10.40;6.43;;;28.20;97.80;;;;;;5020622;28;20038;-69
2023/09/07 12:26:12;;;;;;;6.95;6.25;;;28.30;97.70;;;;;;5024659;28;20737;-69
2023/09/07 12:28:38;;;;;;;9.05;6.50;;;28.30;97.50;;;;;;5032188;28;20068;-69
2023/09/07 12:31:04;;;;;;;8.70;6.82;;;28.40;96.90;;;;;;5024284;28;20041;-69
2023/09/07 12:33:30;;;;;;;7.95;6.32;;;28.40;96.90;;;;;;5022200;28;20049;-69
2023/09/07 12:35:56;;;;;;;9.35;6.05;;;28.40;96.60;;;;;;5020409;28;20388;-68